메인 페이지
METAR-TAF:

METAR-TAF

공항 :

벤구리온 국제공항

텔아비브 / 벤구리온, 이스라엘

위도: 32-00N, 경도: 034-54E, 고도: 40m

현재 날씨관측

예보는 23분 전, 19:50시(UTC)에 발표되었습니다.
남남동7kt
온도 25°C
습도 79%
기압 1012 hPa
시정 10km 이상
1500m 미만 상공 구름 및 적란운 없음

METAR: LLBG 251950Z 15007KT CAVOK 25/21 Q1012 NOSIG RMK FEW130

시각: 22:13 (20:13 UTC)

예보

예보는 2 시간 56분 전, 17:17시(UTC)에 발표되었습니다.
예보 대상 시간: 25일 18시부터 26일 18시까지 (UTC)
여러 방향의 바람 4kt
시정 10km 이상
고도 2000ft 상공 구름 조금
확률 30%
25일 23시부터 26일 05시까지 (UTC)
남남동4kt
고도 1800ft 상공 구름 보통
전환 중
26일 07시부터 26일 09시까지 (UTC)
북북서10kt
시정 10km 이상
1500m 미만 상공 구름 및 적란운 없음
전환 중
26일 15시부터 26일 17시까지 (UTC)
여러 방향의 바람 4kt
고도 2000ft 상공 구름 조금

TAF: LLBG 251717Z 2518/2618 VRB04KT 9999 FEW020 PROB30 2523/2605 15004KT SCT018 BECMG 2607/2609 33010KT CAVOK BECMG 2615/2617 VRB04KT FEW020 TX34/2610Z TN20/2603Z

4,000개 이상의 공항 관측 자료 및 예보 (METAR 및 TAF 보고).

지도상에서 검색 가능한 기상관측소가 노란 점과 빨간 점으로 표시되어 있습니다.

기상관측소 명을 보려면 표시 위로 마우스를 이동하세요.

날씨 관측과 예보를 보려면 클릭하세요.

지도 변경 : 확대하려면 엑스 표시가 있는 녹색 버튼, 축소하려면 빼기 표시가 있는 녹색 버튼, 다음 페이지의 지도를 보려면 녹색 화살표를 클릭하세요.


METAR-TAF: